Аэропорт: Сургут. Сургут

ICAO: USRR

METAR:
2021-07-28 13:30:00
USRR 281330Z 34002MPS 9999 FEW040CB 16/11 Q1003 R25/CLRD60 NOSIG RMK QFE747
METAR:
2021-07-28 10:55:00
TAF USRR 281055Z 2812/2912 28003G08MPS 9999 SCT020 TEMPO 2812/2818 -SHRA FEW010 BKN016CB TEMPO 2818/2824 5000 -SHRA BR FEW005 BKN016CB